createdAt,value
2019-03-17T00:01:23.639Z,2.30
2019-03-17T00:03:52.450Z,2.40
2019-03-17T00:06:24.473Z,2.00
2019-03-17T00:08:53.401Z,2.10
2019-03-17T00:11:22.547Z,2.30
2019-03-17T00:13:52.778Z,2.00
2019-03-17T00:16:25.871Z,2.17
2019-03-17T00:18:54.704Z,2.13
2019-03-17T00:21:23.549Z,1.97
2019-03-17T00:23:52.301Z,2.17
2019-03-17T00:26:22.893Z,2.10
2019-03-17T00:28:51.757Z,2.17
2019-03-17T00:31:24.106Z,2.20
2019-03-17T00:33:51.985Z,2.13
2019-03-17T00:36:22.311Z,1.80
2019-03-17T00:38:51.317Z,1.87
2019-03-17T00:41:20.268Z,2.20
2019-03-17T00:43:51.802Z,2.00
2019-03-17T00:46:21.057Z,1.90
2019-03-17T00:48:50.093Z,1.80
2019-03-17T00:51:19.517Z,1.63
2019-03-17T00:53:50.382Z,1.53
2019-03-17T00:56:19.328Z,2.00
2019-03-17T00:58:49.888Z,1.73
2019-03-17T01:01:19.138Z,1.70
2019-03-17T01:03:48.014Z,1.43
2019-03-17T01:06:20.083Z,1.43
2019-03-17T01:08:49.458Z,1.60
2019-03-17T01:11:18.584Z,1.60
2019-03-17T01:13:47.569Z,1.73
2019-03-17T01:16:16.521Z,1.53
2019-03-17T01:18:45.691Z,1.27
2019-03-17T01:21:14.710Z,1.50
2019-03-17T01:23:43.528Z,1.77
2019-03-17T01:26:12.356Z,1.83
2019-03-17T01:28:41.324Z,1.63
2019-03-17T01:31:10.243Z,1.43
2019-03-17T01:33:39.101Z,1.40
2019-03-17T01:36:07.976Z,1.40
2019-03-17T01:38:36.813Z,1.20
2019-03-17T01:41:05.944Z,1.30
2019-03-17T01:43:34.821Z,1.53
2019-03-17T01:46:03.553Z,1.53
2019-03-17T01:48:32.575Z,1.50
2019-03-17T01:51:01.555Z,1.47
2019-03-17T01:53:30.361Z,1.50
2019-03-17T01:55:59.433Z,1.50
2019-03-17T01:58:28.435Z,1.90
2019-03-17T02:00:57.427Z,1.23
2019-03-17T02:03:26.274Z,1.53
2019-03-17T02:05:55.211Z,1.23
2019-03-17T02:08:27.023Z,1.20
2019-03-17T02:10:55.902Z,1.43
2019-03-17T02:13:24.828Z,1.20
2019-03-17T02:15:53.629Z,1.20
2019-03-17T02:18:22.489Z,1.10
2019-03-17T02:20:52.990Z,1.13
2019-03-17T02:23:22.032Z,1.50
2019-03-17T02:25:52.465Z,1.10
2019-03-17T02:28:23.671Z,1.53
2019-03-17T02:30:52.503Z,1.37
2019-03-17T02:33:24.417Z,1.20
2019-03-17T02:35:53.421Z,1.20
2019-03-17T02:38:24.271Z,1.37
2019-03-17T02:40:53.038Z,1.20
2019-03-17T02:43:21.945Z,1.50
2019-03-17T02:45:50.676Z,1.37
2019-03-17T02:48:19.839Z,1.17
2019-03-17T02:50:50.553Z,1.33
2019-03-17T02:53:21.262Z,1.20
2019-03-17T02:55:50.397Z,1.07
2019-03-17T02:58:19.468Z,1.53
2019-03-17T03:00:50.142Z,1.57
2019-03-17T03:03:22.148Z,1.50
2019-03-17T03:05:55.182Z,1.53
2019-03-17T03:08:21.562Z,1.20
2019-03-17T03:10:51.998Z,1.30
2019-03-17T03:13:22.657Z,1.23
2019-03-17T03:15:54.206Z,1.70
2019-03-17T03:18:23.162Z,0.90
2019-03-17T03:20:52.219Z,1.67
2019-03-17T03:23:25.589Z,1.27
2019-03-17T03:25:54.480Z,1.47
2019-03-17T03:28:25.390Z,1.03
2019-03-17T03:30:55.068Z,1.20
2019-03-17T03:33:25.798Z,0.83
2019-03-17T03:36:09.441Z,1.70
2019-03-17T03:38:25.537Z,1.40
2019-03-17T03:40:54.564Z,1.13
2019-03-17T03:43:23.404Z,1.40
2019-03-17T03:45:52.180Z,1.10
2019-03-17T03:48:21.518Z,1.20
2019-03-17T03:50:51.807Z,1.00
2019-03-17T03:53:23.498Z,1.50
2019-03-17T03:55:52.402Z,1.10
2019-03-17T03:58:22.046Z,1.03
2019-03-17T04:00:52.779Z,1.10
2019-03-17T04:03:21.545Z,1.10
2019-03-17T04:05:51.921Z,1.37
2019-03-17T04:08:21.214Z,1.00
2019-03-17T04:10:52.940Z,1.10
2019-03-17T04:13:22.153Z,1.10
2019-03-17T04:15:51.202Z,0.90
2019-03-17T04:18:23.084Z,1.03
2019-03-17T04:20:52.026Z,0.90
2019-03-17T04:23:23.478Z,1.63
2019-03-17T04:25:52.419Z,1.07
2019-03-17T04:28:41.944Z,0.87
2019-03-17T04:31:14.278Z,1.23
2019-03-17T04:33:41.342Z,1.27
2019-03-17T04:36:10.144Z,1.30
2019-03-17T04:38:39.273Z,0.90
2019-03-17T04:41:08.299Z,1.00
2019-03-17T04:43:37.344Z,1.00
2019-03-17T04:46:06.502Z,0.90
2019-03-17T04:48:35.447Z,0.83
2019-03-17T04:51:04.313Z,0.80
2019-03-17T04:53:33.478Z,1.17
2019-03-17T04:56:02.256Z,1.00
2019-03-17T04:58:31.291Z,0.73
2019-03-17T05:01:00.400Z,0.90
2019-03-17T05:03:29.342Z,0.77
2019-03-17T05:05:58.143Z,0.93
2019-03-17T05:08:27.205Z,0.60
2019-03-17T05:10:56.081Z,0.60
2019-03-17T05:13:25.619Z,0.90
2019-03-17T05:15:54.494Z,0.60
2019-03-17T05:18:23.389Z,0.80
2019-03-17T05:20:52.293Z,0.80
2019-03-17T05:23:21.558Z,0.83
2019-03-17T05:25:50.673Z,0.50
2019-03-17T05:28:19.702Z,0.67
2019-03-17T05:30:51.105Z,0.60
2019-03-17T05:33:20.013Z,0.70
2019-03-17T05:35:49.920Z,0.67
2019-03-17T05:38:21.785Z,0.60
2019-03-17T05:40:52.314Z,0.50
2019-03-17T05:43:22.948Z,0.50
2019-03-17T05:45:51.774Z,0.50
2019-03-17T05:48:23.365Z,0.53
2019-03-17T05:50:52.079Z,0.40
2019-03-17T05:53:20.956Z,0.40
2019-03-17T05:55:52.562Z,0.63
2019-03-17T05:58:24.436Z,0.37
2019-03-17T06:00:53.611Z,0.40
2019-03-17T06:03:22.449Z,0.40
2019-03-17T06:05:51.727Z,0.30
2019-03-17T06:08:20.850Z,0.43
2019-03-17T06:10:50.611Z,0.53
2019-03-17T06:13:19.818Z,0.47
2019-03-17T06:15:50.588Z,0.47
2019-03-17T06:18:21.012Z,0.30
2019-03-17T06:20:52.711Z,0.40
2019-03-17T06:23:24.932Z,0.50
2019-03-17T06:25:55.482Z,0.50
2019-03-17T06:28:24.584Z,0.30
2019-03-17T06:30:53.433Z,0.40
2019-03-17T06:33:22.256Z,0.20
2019-03-17T06:35:51.477Z,0.30
2019-03-17T06:38:23.367Z,0.30
2019-03-17T06:40:52.108Z,0.50
2019-03-17T06:43:21.250Z,0.40
2019-03-17T06:45:50.345Z,0.23
2019-03-17T06:48:19.493Z,0.20
2019-03-17T06:50:49.458Z,0.30
2019-03-17T06:53:20.156Z,0.20
2019-03-17T06:55:51.521Z,0.27
2019-03-17T06:58:22.986Z,0.30
2019-03-17T07:00:51.971Z,0.30
2019-03-17T07:03:23.954Z,0.30
2019-03-17T07:05:52.990Z,0.20
2019-03-17T07:08:21.715Z,0.20
2019-03-17T07:10:56.537Z,1.27
2019-03-17T07:13:34.347Z,0.57
2019-03-17T07:16:03.326Z,0.40
2019-03-17T07:18:32.317Z,0.50
2019-03-17T07:21:01.090Z,0.33
2019-03-17T07:23:30.223Z,0.30
2019-03-17T07:25:59.113Z,0.40
2019-03-17T07:28:28.034Z,0.40
2019-03-17T07:30:57.132Z,0.27
2019-03-17T07:33:25.946Z,0.63
2019-03-17T07:35:55.085Z,0.37
2019-03-17T07:38:23.958Z,0.40
2019-03-17T07:40:53.003Z,0.30
2019-03-17T07:43:23.432Z,0.33
2019-03-17T07:45:53.374Z,0.23
2019-03-17T07:48:22.233Z,0.23
2019-03-17T07:50:52.801Z,0.40
2019-03-17T07:53:21.571Z,0.43
2019-03-17T07:55:50.711Z,1.50
2019-03-17T07:58:21.235Z,0.53
2019-03-17T08:00:50.807Z,0.30
2019-03-17T08:03:19.981Z,0.20
2019-03-17T08:05:49.465Z,0.30
2019-03-17T08:08:18.535Z,0.20
2019-03-17T08:10:47.518Z,0.33
2019-03-17T08:13:16.343Z,0.47
2019-03-17T08:15:45.178Z,0.50
2019-03-17T08:18:14.010Z,0.30
2019-03-17T08:20:42.994Z,0.50
2019-03-17T08:23:14.815Z,0.37
2019-03-17T08:25:43.581Z,0.30
2019-03-17T08:28:12.623Z,0.40
2019-03-17T08:30:52.609Z,0.60
2019-03-17T08:33:11.938Z,0.50
2019-03-17T08:35:40.990Z,0.20
2019-03-17T08:38:21.406Z,0.40
2019-03-17T08:40:40.336Z,0.53
2019-03-17T08:43:10.425Z,0.30
2019-03-17T08:45:39.211Z,0.20
2019-03-17T08:48:08.080Z,0.70
2019-03-17T08:50:37.090Z,0.40
2019-03-17T08:53:05.964Z,0.30
2019-03-17T08:55:34.958Z,0.60
2019-03-17T08:58:04.011Z,0.70
2019-03-17T09:00:35.937Z,0.63
2019-03-17T09:03:05.023Z,0.40
2019-03-17T09:05:36.210Z,0.57
2019-03-17T09:08:05.080Z,0.50
2019-03-17T09:10:35.572Z,0.47
2019-03-17T09:13:04.553Z,0.70
2019-03-17T09:15:33.520Z,0.97
2019-03-17T09:18:02.651Z,1.13
2019-03-17T09:20:31.655Z,0.73
2019-03-17T09:23:00.414Z,0.77
2019-03-17T09:25:29.268Z,0.67
2019-03-17T09:27:58.111Z,0.50
2019-03-17T09:30:35.982Z,0.50
2019-03-17T09:33:04.941Z,0.70
2019-03-17T09:35:33.980Z,0.50
2019-03-17T09:38:02.945Z,0.40
2019-03-17T09:40:34.777Z,2.33
2019-03-17T09:43:03.636Z,2.57
2019-03-17T09:45:32.554Z,2.03
2019-03-17T09:48:02.831Z,1.13
2019-03-17T09:50:31.536Z,0.80
2019-03-17T09:53:00.556Z,0.50
2019-03-17T09:55:29.450Z,0.53
2019-03-17T09:57:58.317Z,0.40
2019-03-17T10:00:27.171Z,0.60
2019-03-17T10:02:56.163Z,0.40
2019-03-17T10:05:25.209Z,0.60
2019-03-17T10:07:54.058Z,0.60
2019-03-17T10:10:24.168Z,0.67
2019-03-17T10:12:53.024Z,0.80
2019-03-17T10:15:24.754Z,0.40
2019-03-17T10:17:53.599Z,0.80
2019-03-17T10:20:22.521Z,0.70
2019-03-17T10:22:51.679Z,0.70
2019-03-17T10:25:22.148Z,0.60
2019-03-17T10:27:53.724Z,0.83
2019-03-17T10:30:23.047Z,1.03
2019-03-17T10:32:51.856Z,0.77
2019-03-17T10:35:23.779Z,0.77
2019-03-17T10:37:52.902Z,1.10
2019-03-17T10:40:22.762Z,0.70
2019-03-17T10:42:54.417Z,0.90
2019-03-17T10:45:23.514Z,1.03
2019-03-17T10:47:54.570Z,0.90
2019-03-17T10:50:23.488Z,0.90
2019-03-17T10:52:52.493Z,0.90
2019-03-17T10:55:21.577Z,0.97
2019-03-17T10:57:52.003Z,0.80
2019-03-17T11:00:22.834Z,0.97
2019-03-17T11:02:51.915Z,0.90
2019-03-17T11:05:20.880Z,1.10
2019-03-17T11:07:49.906Z,0.80
2019-03-17T11:10:22.358Z,0.97
2019-03-17T11:12:52.828Z,1.20
2019-03-17T11:15:22.731Z,0.87
2019-03-17T11:17:54.461Z,0.83
2019-03-17T11:20:23.500Z,1.00
2019-03-17T11:22:52.385Z,0.90
2019-03-17T11:25:22.789Z,0.90
2019-03-17T11:27:51.808Z,1.03
2019-03-17T11:30:22.481Z,1.00
2019-03-17T11:32:54.151Z,1.53
2019-03-17T11:35:22.923Z,2.37
2019-03-17T11:37:54.817Z,1.40
2019-03-17T11:40:23.782Z,1.10
2019-03-17T11:42:52.960Z,0.90
2019-03-17T11:45:21.955Z,1.40
2019-03-17T11:47:51.650Z,1.43
2019-03-17T11:50:21.498Z,1.30
2019-03-17T11:52:51.134Z,1.00
2019-03-17T11:55:22.744Z,1.03
2019-03-17T11:57:53.257Z,1.07
2019-03-17T12:00:23.493Z,0.87
2019-03-17T12:02:52.399Z,1.10
2019-03-17T12:05:22.775Z,0.90
2019-03-17T12:07:54.481Z,1.00
2019-03-17T12:10:24.032Z,0.90
2019-03-17T12:12:53.014Z,1.13
2019-03-17T12:15:30.425Z,1.60
2019-03-17T12:17:59.275Z,1.77
2019-03-17T12:20:28.385Z,1.53
2019-03-17T12:22:57.547Z,1.37
2019-03-17T12:25:26.436Z,1.70
2019-03-17T12:27:55.326Z,1.10
2019-03-17T12:30:26.011Z,1.40
2019-03-17T12:32:55.045Z,1.00
2019-03-17T12:35:24.149Z,1.20
2019-03-17T12:37:53.209Z,1.50
2019-03-17T12:40:22.078Z,1.00
2019-03-17T12:42:54.031Z,1.20
2019-03-17T12:45:22.783Z,1.13
2019-03-17T12:47:51.738Z,0.83
2019-03-17T12:50:21.883Z,0.90
2019-03-17T12:52:53.596Z,1.40
2019-03-17T12:55:22.429Z,1.00
2019-03-17T12:57:52.277Z,1.40
2019-03-17T13:00:27.986Z,0.80
2019-03-17T13:02:56.884Z,1.10
2019-03-17T13:05:26.041Z,0.73
2019-03-17T13:07:55.026Z,1.40
2019-03-17T13:10:24.143Z,1.37
2019-03-17T13:12:53.105Z,0.90
2019-03-17T13:15:21.917Z,1.30
2019-03-17T13:17:53.785Z,0.97
2019-03-17T13:20:22.597Z,1.43
2019-03-17T13:22:54.321Z,1.43
2019-03-17T13:25:23.252Z,1.50
2019-03-17T13:27:52.304Z,1.07
2019-03-17T13:30:22.519Z,2.40
2019-03-17T13:32:53.267Z,1.50
2019-03-17T13:35:22.200Z,1.20
2019-03-17T13:37:51.382Z,1.20
2019-03-17T13:40:29.431Z,2.90
2019-03-17T13:42:54.519Z,1.00
2019-03-17T13:45:23.381Z,1.20
2019-03-17T13:47:53.213Z,1.17
2019-03-17T13:50:23.697Z,1.23
2019-03-17T13:52:52.614Z,1.67
2019-03-17T13:55:24.560Z,1.33
2019-03-17T13:58:05.455Z,1.17
2019-03-17T14:00:34.464Z,0.90
2019-03-17T14:03:03.228Z,1.07
2019-03-17T14:05:32.689Z,1.30
2019-03-17T14:08:01.748Z,1.00
2019-03-17T14:10:40.882Z,1.60
2019-03-17T14:13:02.801Z,0.83
2019-03-17T14:15:31.641Z,1.00
2019-03-17T14:18:00.458Z,1.43
2019-03-17T14:20:30.776Z,1.13
2019-03-17T14:23:00.858Z,2.60
2019-03-17T14:25:34.959Z,0.73
2019-03-17T14:28:03.782Z,2.33
2019-03-17T14:30:32.590Z,1.10
2019-03-17T14:33:01.375Z,0.97
2019-03-17T14:35:30.370Z,1.50
2019-03-17T14:37:59.117Z,1.20
2019-03-17T14:40:28.018Z,0.97
2019-03-17T14:42:56.940Z,1.50
2019-03-17T14:45:25.775Z,1.10
2019-03-17T14:47:54.595Z,0.90
2019-03-17T14:50:24.682Z,1.13
2019-03-17T14:52:53.711Z,1.30
2019-03-17T14:55:26.484Z,1.10
2019-03-17T14:57:55.310Z,0.67
2019-03-17T15:00:25.076Z,1.53
2019-03-17T15:02:53.997Z,1.00
2019-03-17T15:05:25.233Z,0.90
2019-03-17T15:07:53.381Z,0.83
2019-03-17T15:10:23.362Z,0.73
2019-03-17T15:12:52.205Z,0.70
2019-03-17T15:15:21.780Z,0.90
2019-03-17T15:17:51.256Z,1.20
2019-03-17T15:20:21.969Z,1.10
2019-03-17T15:22:52.221Z,1.30
2019-03-17T15:25:21.263Z,0.87
2019-03-17T15:27:53.029Z,0.93
2019-03-17T15:30:24.269Z,1.10
2019-03-17T15:32:56.040Z,0.90
2019-03-17T15:35:24.998Z,0.97
2019-03-17T15:37:53.990Z,0.97
2019-03-17T15:40:28.863Z,0.80
2019-03-17T15:42:57.905Z,0.60
2019-03-17T15:45:28.433Z,0.90
2019-03-17T15:47:57.418Z,1.50
2019-03-17T15:50:31.004Z,1.20
2019-03-17T15:53:00.014Z,1.00
2019-03-17T15:55:29.210Z,2.07
2019-03-17T15:57:58.090Z,0.90
2019-03-17T16:00:27.328Z,1.03
2019-03-17T16:02:56.193Z,0.63
2019-03-17T16:05:25.544Z,0.80
2019-03-17T16:07:54.688Z,0.80
2019-03-17T16:10:27.564Z,0.60
2019-03-17T16:12:56.727Z,0.70
2019-03-17T16:15:25.726Z,1.17
2019-03-17T16:17:54.473Z,0.90
2019-03-17T16:20:24.537Z,1.17
2019-03-17T16:22:53.421Z,0.97
2019-03-17T16:25:26.909Z,1.07
2019-03-17T16:27:55.716Z,0.73
2019-03-17T16:30:28.633Z,0.90
2019-03-17T16:32:57.586Z,1.23
2019-03-17T16:35:26.635Z,0.93
2019-03-17T16:37:55.510Z,0.90
2019-03-17T16:40:47.784Z,1.00
2019-03-17T16:43:19.739Z,0.70
2019-03-17T16:45:51.389Z,0.90
2019-03-17T16:48:21.722Z,1.20
2019-03-17T16:50:52.126Z,1.07
2019-03-17T16:53:21.436Z,0.77
2019-03-17T16:55:50.774Z,0.83
2019-03-17T16:58:21.255Z,1.00
2019-03-17T17:00:50.429Z,0.70
2019-03-17T17:03:19.543Z,0.90
2019-03-17T17:05:51.171Z,0.90
2019-03-17T17:08:20.170Z,0.93
2019-03-17T17:10:50.673Z,1.23
2019-03-17T17:13:21.187Z,0.90
2019-03-17T17:15:50.137Z,0.90
2019-03-17T17:18:22.276Z,0.80
2019-03-17T17:20:51.422Z,0.80
2019-03-17T17:23:20.710Z,0.97
2019-03-17T17:25:49.890Z,1.17
2019-03-17T17:28:21.879Z,0.90
2019-03-17T17:30:50.835Z,1.00
2019-03-17T17:33:20.236Z,0.80
2019-03-17T17:35:51.949Z,0.70
2019-03-17T17:38:21.043Z,0.77
2019-03-17T17:40:50.225Z,0.80
2019-03-17T17:43:20.643Z,0.90
2019-03-17T17:45:54.370Z,1.00
2019-03-17T17:48:23.367Z,0.90
2019-03-17T17:50:54.039Z,0.57
2019-03-17T17:53:23.014Z,0.80
2019-03-17T17:55:51.702Z,1.03
2019-03-17T17:58:21.177Z,1.07
2019-03-17T18:00:54.010Z,0.87
2019-03-17T18:03:22.862Z,0.90
2019-03-17T18:05:52.235Z,0.90
2019-03-17T18:08:21.462Z,0.80
2019-03-17T18:10:51.975Z,1.27
2019-03-17T18:13:23.733Z,0.70
2019-03-17T18:15:52.473Z,0.90
2019-03-17T18:18:21.565Z,0.80
2019-03-17T18:20:51.989Z,0.93
2019-03-17T18:23:24.127Z,0.80
2019-03-17T18:25:52.883Z,1.07
2019-03-17T18:28:24.734Z,0.73
2019-03-17T18:30:53.695Z,1.07
2019-03-17T18:33:22.587Z,1.00
2019-03-17T18:35:52.729Z,1.10
2019-03-17T18:38:24.173Z,0.90
2019-03-17T18:40:53.020Z,0.77
2019-03-17T18:43:22.932Z,0.80
2019-03-17T18:45:51.874Z,1.07
2019-03-17T18:48:22.247Z,0.90
2019-03-17T18:50:52.629Z,0.90
2019-03-17T18:53:22.090Z,0.80
2019-03-17T18:55:51.268Z,0.80
2019-03-17T18:58:22.197Z,0.50
2019-03-17T19:00:50.880Z,0.90
2019-03-17T19:03:20.169Z,0.90
2019-03-17T19:05:50.195Z,0.90
2019-03-17T19:08:24.456Z,0.90
2019-03-17T19:10:53.520Z,0.90
2019-03-17T19:13:25.345Z,0.90
2019-03-17T19:15:54.218Z,0.90
2019-03-17T19:18:23.114Z,1.10
2019-03-17T19:20:52.020Z,0.70
2019-03-17T19:23:25.773Z,0.97
2019-03-17T19:25:54.740Z,1.00
2019-03-17T19:28:23.809Z,0.67
2019-03-17T19:30:52.702Z,0.63
2019-03-17T19:33:23.365Z,1.00
2019-03-17T19:35:54.970Z,0.60
2019-03-17T19:38:22.861Z,0.90
2019-03-17T19:40:51.668Z,0.37
2019-03-17T19:43:21.967Z,0.67
2019-03-17T19:45:53.880Z,0.70
2019-03-17T19:48:22.722Z,0.77
2019-03-17T19:50:54.853Z,0.70
2019-03-17T19:53:23.677Z,1.00
2019-03-17T19:55:54.150Z,0.80
2019-03-17T19:58:23.087Z,0.83
2019-03-17T20:00:55.009Z,0.77
2019-03-17T20:03:23.904Z,0.93
2019-03-17T20:06:02.086Z,0.83
2019-03-17T20:08:26.182Z,0.67
2019-03-17T20:10:55.148Z,0.63
2019-03-17T20:13:25.440Z,0.70
2019-03-17T20:15:54.397Z,0.70
2019-03-17T20:18:23.136Z,0.87
2019-03-17T20:20:52.360Z,0.83
2019-03-17T20:23:22.704Z,0.80
2019-03-17T20:26:10.814Z,0.57
2019-03-17T20:28:39.665Z,0.80
2019-03-17T20:31:08.457Z,0.43
2019-03-17T20:33:37.222Z,0.80
2019-03-17T20:36:06.275Z,0.60
2019-03-17T20:38:36.954Z,0.40
2019-03-17T20:41:05.808Z,1.03
2019-03-17T20:43:35.393Z,0.70
2019-03-17T20:46:04.405Z,1.40
2019-03-17T20:48:33.179Z,0.63
2019-03-17T20:51:01.996Z,0.60
2019-03-17T20:53:30.958Z,0.77
2019-03-17T20:55:59.785Z,0.60
2019-03-17T20:58:28.724Z,0.43
2019-03-17T21:00:57.555Z,1.00
2019-03-17T21:03:26.471Z,0.90
2019-03-17T21:05:55.566Z,1.20
2019-03-17T21:08:24.435Z,0.90
2019-03-17T21:10:53.456Z,1.13
2019-03-17T21:13:22.405Z,0.67
2019-03-17T21:15:53.938Z,1.33
2019-03-17T21:18:42.132Z,1.00
2019-03-17T21:21:11.003Z,0.77
2019-03-17T21:23:43.232Z,0.97
2019-03-17T21:26:12.078Z,0.80
2019-03-17T21:28:40.992Z,0.73
2019-03-17T21:31:09.982Z,0.63
2019-03-17T21:33:42.049Z,0.70
2019-03-17T21:36:10.878Z,0.80
2019-03-17T21:38:39.787Z,0.80
2019-03-17T21:41:10.223Z,1.00
2019-03-17T21:43:40.642Z,1.00
2019-03-17T21:46:09.743Z,0.87
2019-03-17T21:48:38.615Z,0.90
2019-03-17T21:51:07.449Z,1.17
2019-03-17T21:53:36.327Z,0.73
2019-03-17T21:56:06.270Z,0.70
2019-03-17T21:58:35.192Z,0.70
2019-03-17T22:01:04.059Z,0.90
2019-03-17T22:03:34.245Z,1.60
2019-03-17T22:06:03.143Z,1.07
2019-03-17T22:08:32.009Z,0.87
2019-03-17T22:11:01.106Z,1.43
2019-03-17T22:13:30.179Z,0.70
2019-03-17T22:15:59.081Z,1.40
2019-03-17T22:18:28.030Z,0.80
2019-03-17T22:20:56.896Z,0.90
2019-03-17T22:23:25.736Z,1.27
2019-03-17T22:25:54.633Z,1.00
2019-03-17T22:28:23.588Z,0.70
2019-03-17T22:30:52.376Z,0.87
2019-03-17T22:33:24.484Z,0.70
2019-03-17T22:35:53.488Z,0.70
2019-03-17T22:38:22.252Z,0.73
2019-03-17T22:40:51.438Z,1.03
2019-03-17T22:43:21.844Z,0.50
2019-03-17T22:45:50.916Z,0.87
2019-03-17T22:48:20.015Z,0.63
2019-03-17T22:50:49.557Z,0.63
2019-03-17T22:53:18.713Z,0.70
2019-03-17T22:55:47.590Z,0.50
2019-03-17T22:58:16.909Z,0.87
2019-03-17T23:00:46.263Z,0.70
2019-03-17T23:03:15.180Z,1.10
2019-03-17T23:05:44.165Z,0.70
2019-03-17T23:08:12.912Z,0.70
2019-03-17T23:10:41.969Z,0.77
2019-03-17T23:13:10.840Z,0.80
2019-03-17T23:15:39.943Z,0.60
2019-03-17T23:18:08.742Z,0.90
2019-03-17T23:20:37.900Z,0.70
2019-03-17T23:23:06.680Z,0.63
2019-03-17T23:25:35.699Z,0.60
2019-03-17T23:28:04.551Z,1.17
2019-03-17T23:30:33.721Z,1.07
2019-03-17T23:33:02.619Z,0.50
2019-03-17T23:35:31.478Z,1.60
2019-03-17T23:38:00.608Z,1.23
2019-03-17T23:40:29.461Z,0.90
2019-03-17T23:42:58.145Z,1.00
2019-03-17T23:45:27.174Z,0.90
2019-03-17T23:47:56.116Z,0.73
2019-03-17T23:50:24.845Z,0.90
2019-03-17T23:52:53.691Z,1.33
2019-03-17T23:55:22.612Z,0.97
2019-03-17T23:57:53.146Z,1.10
